Aérodrome :
LOGIN :

S'inscrire | Disclaimer

   EN    FR    IT 

 










Légende :    VFR   VFR Marginal   IFR   IFR Intensif   IFR Très Intensif
Visi : 
Plafond : 
>= 8 km
>= 3000ft
5 à 8 km
1000 à 3000 ft
1500m à 5 km
500 à 1000 ft
800 à 1500m
200 à 500 ft
< 800m
< 200 ft
Symboles :   Orages  Brouillard  Fortes neiges  Fortes précipitations  Vent > 20 kt
SIGMETs :   Divers  Orages  Givrage  Turbulence  Onde Orograph.  Cendres Volcan.







- Altitude de l'aérodrome : 1306 ft
- Code IATA : ACH


LSZR - Alten Rhein

DERNIER METAR :
  • 121550Z VRB02KT 9999 FEW024 BKN030 01/M04 Q1019 NOSIG RMK L

METARs EXPIRÉS :
  • 121520Z AUTO VRB01KT 9999 BKN024 BKN032 02/M05 Q1019
  • 121450Z VRB02KT 9999 SCT035 01/M05 Q1020 NOSIG RMK K
  • 121420Z 08003KT CAVOK 03/M05 Q1020 NOSIG RMK I
  • 121350Z AUTO 09004KT CAVOK 03/M06 Q1020

TAF TAF LSZR
Valide du 12 à 15h jusqu'au 13 à 00h UTC


121425Z 1215/1224 08005KT CAVOK
PROB40 1216/1224 9000 BKN020
ATIS : +41 71 858 51 66
Pas de NOTAMs connus pour ce terrain.



MET'MAP, la Météo Aéronautique d'un coup d'oeil ! - Copyright ORBIFLY Décembre 2007 - Disclaimer

ORBIFLY MET'MAP TEAM :

Programmation & Développement : Alexandra Zaïnal
Conception & Développement : Baudouin d'Aumeries
Co-Programmation & Développement : Marc-Olivier Méhu
Soutien technique & logistique : Manuel Goepfert

Contact : metmap@orbifly.com




SOURCES & CREDITS :

   NOAA